createdAt,value
2023-01-29T00:01:32.953Z,17.6
2023-01-29T00:07:17.092Z,16.7
2023-01-29T00:13:00.977Z,17.1
2023-01-29T00:18:45.222Z,18.1
2023-01-29T00:24:30.065Z,16.9
2023-01-29T00:30:16.110Z,18.1
2023-01-29T00:36:03.369Z,17.6
2023-01-29T00:41:47.475Z,18.1
2023-01-29T00:47:31.458Z,17.3
2023-01-29T00:53:15.420Z,17.3
2023-01-29T00:58:59.321Z,17.7
2023-01-29T01:04:46.495Z,17.2
2023-01-29T01:10:31.722Z,17.7
2023-01-29T01:16:17.602Z,17.1
2023-01-29T01:22:01.407Z,17.3
2023-01-29T01:27:45.262Z,16.9
2023-01-29T01:33:29.262Z,17.5
2023-01-29T01:39:13.247Z,17.7
2023-01-29T01:44:58.663Z,17.6
2023-01-29T01:50:44.817Z,18.3
2023-01-29T01:56:31.253Z,18.4
2023-01-29T02:02:15.955Z,18.2
2023-01-29T02:08:01.521Z,18.6
2023-01-29T02:13:45.956Z,18.5
2023-01-29T02:19:35.423Z,18.1
2023-01-29T02:25:39.588Z,19.3
2023-01-29T02:31:29.681Z,19
2023-01-29T02:37:15.454Z,18.8
2023-01-29T02:43:03.942Z,19.7
2023-01-29T02:48:52.794Z,19
2023-01-29T02:54:41.673Z,18.7
2023-01-29T03:00:27.361Z,19
2023-01-29T03:06:13.629Z,18.3
2023-01-29T03:12:00.059Z,19
2023-01-29T03:17:47.337Z,18.7
2023-01-29T03:23:33.501Z,19.6
2023-01-29T03:29:17.473Z,19.1
2023-01-29T03:35:05.325Z,18.4
2023-01-29T03:40:52.275Z,18.9
2023-01-29T03:46:39.853Z,18.8
2023-01-29T03:52:26.882Z,19.5
2023-01-29T03:58:15.589Z,19.8
2023-01-29T04:04:03.407Z,19.8
2023-01-29T04:09:50.208Z,19.7
2023-01-29T04:15:38.172Z,19.4
2023-01-29T04:21:37.074Z,19.4
2023-01-29T04:27:31.607Z,20.6
2023-01-29T04:33:28.899Z,19.5
2023-01-29T04:39:18.596Z,19.8
2023-01-29T04:45:06.920Z,19.7
2023-01-29T04:50:53.990Z,20
2023-01-29T04:56:42.777Z,20.7
2023-01-29T05:02:36.128Z,20.2
2023-01-29T05:08:21.818Z,19.3
2023-01-29T05:14:08.389Z,19.1
2023-01-29T05:19:52.178Z,19.3
2023-01-29T05:25:36.036Z,18.6
2023-01-29T05:31:20.447Z,19.3
2023-01-29T05:37:04.580Z,19.3
2023-01-29T05:42:48.461Z,19.2
2023-01-29T05:48:32.192Z,18.8
2023-01-29T05:54:17.033Z,18.3
2023-01-29T06:00:01.077Z,17.9
2023-01-29T06:05:45.293Z,18.8
2023-01-29T06:11:29.235Z,17.9
2023-01-29T06:17:13.238Z,18
2023-01-29T06:22:57.998Z,18.1
2023-01-29T06:28:41.831Z,17.9
2023-01-29T06:34:26.530Z,17.8
2023-01-29T06:40:17.764Z,18.1
2023-01-29T06:46:05.277Z,18
2023-01-29T06:51:49.246Z,17.6
2023-01-29T06:57:34.187Z,18.4
2023-01-29T07:03:18.186Z,16.8
2023-01-29T07:09:01.964Z,16.9
2023-01-29T07:14:45.762Z,18.1
2023-01-29T07:20:33.155Z,17.5
2023-01-29T07:26:17.414Z,16.6
2023-01-29T07:32:09.147Z,17.6
2023-01-29T07:38:05.773Z,17.7
2023-01-29T07:43:49.621Z,18.1
2023-01-29T07:49:33.362Z,17.1
2023-01-29T07:55:17.418Z,18.4
2023-01-29T08:01:01.256Z,19.1
2023-01-29T08:06:46.239Z,18.6
2023-01-29T08:12:31.287Z,18.1
2023-01-29T08:18:27.424Z,18.8
2023-01-29T08:24:11.571Z,17.7
2023-01-29T08:29:55.247Z,17.8
2023-01-29T08:35:39.274Z,18.5
2023-01-29T08:41:23.066Z,19.6
2023-01-29T08:47:06.828Z,18.8
2023-01-29T08:52:50.858Z,19.2
2023-01-29T08:58:34.569Z,19.5
2023-01-29T09:04:18.385Z,19.3
2023-01-29T09:10:02.075Z,18.2
2023-01-29T09:15:48.925Z,18.2
2023-01-29T09:21:32.619Z,18.9
2023-01-29T09:27:16.333Z,18.9
2023-01-29T09:33:01.720Z,18.8
2023-01-29T09:38:50.831Z,18.4
2023-01-29T09:44:44.265Z,19.3
2023-01-29T09:50:29.848Z,18.4
2023-01-29T09:56:16.189Z,18.8
2023-01-29T10:02:04.482Z,18.6
2023-01-29T10:07:56.605Z,18.8
2023-01-29T10:13:46.525Z,18.2
2023-01-29T10:19:46.215Z,18.2
2023-01-29T10:25:30.208Z,17.5
2023-01-29T10:31:21.829Z,17.4
2023-01-29T10:37:08.253Z,19.7
2023-01-29T10:42:57.124Z,19.2
2023-01-29T10:48:44.613Z,18.4
2023-01-29T10:54:36.937Z,18.8
2023-01-29T11:00:23.578Z,17.3
2023-01-29T11:06:10.802Z,17.2
2023-01-29T11:11:56.213Z,17.5
2023-01-29T11:17:40.838Z,17.3
2023-01-29T11:23:35.025Z,16.4
2023-01-29T11:29:42.944Z,36.3
2023-01-29T11:35:27.475Z,33
2023-01-29T11:41:17.020Z,28.4
2023-01-29T11:47:06.328Z,25.9
2023-01-29T11:52:53.581Z,24.4
2023-01-29T11:58:37.882Z,23.4
2023-01-29T12:04:24.681Z,21.5
2023-01-29T12:10:16.822Z,21.2
2023-01-29T12:16:14.687Z,19.8
2023-01-29T12:22:12.571Z,19.6
2023-01-29T12:27:59.368Z,18.7
2023-01-29T12:33:48.142Z,17.6
2023-01-29T12:39:32.022Z,19.7
2023-01-29T12:45:18.264Z,18.3
2023-01-29T12:51:06.529Z,16.4
2023-01-29T12:56:51.366Z,16
2023-01-29T13:02:41.034Z,15.7
2023-01-29T13:08:28.449Z,14.6
2023-01-29T13:14:15.678Z,14.2
2023-01-29T13:20:02.323Z,13.6
2023-01-29T13:25:46.156Z,14.4
2023-01-29T13:31:38.645Z,14.2
2023-01-29T13:37:26.361Z,13.3
2023-01-29T13:43:16.372Z,12.7
2023-01-29T13:49:00.483Z,12.7
2023-01-29T13:54:49.560Z,12.8
2023-01-29T14:00:53.516Z,12.5
2023-01-29T14:06:54.123Z,12.5
2023-01-29T14:12:42.829Z,12.5
2023-01-29T14:18:46.894Z,13
2023-01-29T14:24:35.974Z,12.7
2023-01-29T14:30:20.547Z,12.4
2023-01-29T14:36:06.154Z,12.6
2023-01-29T14:41:51.384Z,11.9
2023-01-29T14:47:46.598Z,12.4
2023-01-29T14:53:55.127Z,11.8
2023-01-29T14:59:40.379Z,12.1
2023-01-29T15:05:26.390Z,12.7
2023-01-29T15:11:15.424Z,12.2
2023-01-29T15:17:10.476Z,12.6
2023-01-29T15:22:54.360Z,12.3
2023-01-29T15:28:42.290Z,12.2
2023-01-29T15:34:30.467Z,12
2023-01-29T15:40:18.758Z,12.5
2023-01-29T15:46:03.804Z,13.5
2023-01-29T15:51:48.103Z,12.8
2023-01-29T15:57:34.535Z,12.6
2023-01-29T16:03:23.670Z,12.7
2023-01-29T16:09:08.877Z,12.4
2023-01-29T16:14:54.854Z,12.2
2023-01-29T16:20:42.271Z,12
2023-01-29T16:26:28.307Z,12.2
2023-01-29T16:32:13.326Z,12.4
2023-01-29T16:38:00.615Z,12.9
2023-01-29T16:43:57.929Z,12.1
2023-01-29T16:49:55.432Z,12.3
2023-01-29T16:55:41.046Z,13
2023-01-29T17:01:26.229Z,12.2
2023-01-29T17:07:15.373Z,12.9
2023-01-29T17:13:02.639Z,12.1
2023-01-29T17:18:46.575Z,12.2
2023-01-29T17:24:30.224Z,11.9
2023-01-29T17:30:16.137Z,12.5
2023-01-29T17:35:59.990Z,12.8
2023-01-29T17:41:47.168Z,13.2
2023-01-29T17:47:32.618Z,13.1
2023-01-29T17:53:16.369Z,13.4
2023-01-29T17:59:00.348Z,13
2023-01-29T18:04:45.702Z,13
2023-01-29T18:10:33.061Z,13.2
2023-01-29T18:16:17.323Z,14
2023-01-29T18:22:01.684Z,13.7
2023-01-29T18:27:47.117Z,13
2023-01-29T18:33:30.921Z,13.4
2023-01-29T18:39:15.562Z,13.1
2023-01-29T18:44:59.412Z,13.5
2023-01-29T18:50:43.345Z,13.3
2023-01-29T18:56:27.376Z,13.5
2023-01-29T19:02:13.082Z,13.8
2023-01-29T19:07:57.164Z,12.9
2023-01-29T19:13:41.575Z,13.7
2023-01-29T19:19:25.429Z,13.9
2023-01-29T19:25:10.310Z,13.8
2023-01-29T19:30:54.374Z,13.7
2023-01-29T19:36:38.384Z,14.5
2023-01-29T19:42:22.487Z,14.2
2023-01-29T19:48:06.369Z,13.4
2023-01-29T19:53:51.263Z,13.9
2023-01-29T19:59:35.197Z,13.6
2023-01-29T20:05:20.440Z,13.7
2023-01-29T20:11:04.505Z,13.7
2023-01-29T20:16:48.385Z,13.5
2023-01-29T20:22:32.175Z,14
2023-01-29T20:28:16.832Z,13.5
2023-01-29T20:34:00.679Z,13.5
2023-01-29T20:39:44.542Z,13.1
2023-01-29T20:45:29.471Z,13.2
2023-01-29T20:51:14.123Z,13.2
2023-01-29T20:56:58.345Z,13.5
2023-01-29T21:02:42.255Z,13.1
2023-01-29T21:08:26.578Z,13.7
2023-01-29T21:14:10.446Z,13.2
2023-01-29T21:19:54.500Z,12.5
2023-01-29T21:25:38.558Z,12.9
2023-01-29T21:31:24.812Z,13
2023-01-29T21:37:08.929Z,12.8
2023-01-29T21:42:53.273Z,13.2
2023-01-29T21:48:37.791Z,13.2
2023-01-29T21:54:21.810Z,13
2023-01-29T22:00:07.694Z,13.4
2023-01-29T22:05:51.758Z,12.8
2023-01-29T22:11:36.063Z,13.7
2023-01-29T22:17:20.443Z,13.2
2023-01-29T22:23:04.963Z,12.8
2023-01-29T22:28:48.917Z,12.4
2023-01-29T22:34:32.792Z,12.2
2023-01-29T22:40:18.205Z,13
2023-01-29T22:46:02.914Z,12.6
2023-01-29T22:51:46.829Z,12.3
2023-01-29T22:57:30.778Z,11.9
2023-01-29T23:03:14.942Z,12.1
2023-01-29T23:08:58.773Z,12.2
2023-01-29T23:14:42.707Z,12.2
2023-01-29T23:20:26.827Z,12.4
2023-01-29T23:26:11.894Z,12
2023-01-29T23:31:55.886Z,12.2
2023-01-29T23:37:39.706Z,12.5
2023-01-29T23:43:25.284Z,12.3
2023-01-29T23:49:09.031Z,12.9
2023-01-29T23:54:52.830Z,12.6
